createdAt,value
2023-09-06T00:03:05.421Z,46.47
2023-09-06T00:08:09.410Z,46.70
2023-09-06T00:13:11.512Z,46.62
2023-09-06T00:18:12.829Z,46.61
2023-09-06T00:23:15.166Z,46.58
2023-09-06T00:28:16.504Z,46.51
2023-09-06T00:33:17.962Z,46.71
2023-09-06T00:38:19.445Z,46.82
2023-09-06T00:43:20.927Z,46.92
2023-09-06T00:48:23.117Z,46.72
2023-09-06T00:53:25.191Z,46.46
2023-09-06T00:58:27.892Z,46.56
2023-09-06T01:03:29.607Z,46.54
2023-09-06T01:08:32.963Z,46.53
2023-09-06T01:13:34.263Z,46.48
2023-09-06T01:18:35.611Z,46.55
2023-09-06T01:23:40.223Z,46.38
2023-09-06T01:28:41.524Z,46.22
2023-09-06T01:33:42.864Z,46.57
2023-09-06T01:38:44.166Z,46.72
2023-09-06T01:43:45.540Z,46.52
2023-09-06T01:48:48.056Z,46.51
2023-09-06T01:53:49.362Z,46.43
2023-09-06T01:58:50.651Z,46.33
2023-09-06T02:03:52.229Z,46.41
2023-09-06T02:08:53.964Z,46.46
2023-09-06T02:13:55.349Z,46.38
2023-09-06T02:18:56.769Z,46.35
2023-09-06T02:23:58.138Z,46.22
2023-09-06T02:28:59.467Z,46.34
2023-09-06T02:34:00.857Z,46.31
2023-09-06T02:39:02.800Z,46.01
2023-09-06T02:44:04.120Z,45.91
2023-09-06T02:49:12.441Z,45.92
2023-09-06T02:54:18.451Z,46.03
2023-09-06T02:59:20.553Z,46.03
2023-09-06T03:04:24.307Z,45.72
2023-09-06T03:09:29.978Z,46.14
2023-09-06T03:14:31.386Z,46.04
2023-09-06T03:19:34.953Z,46.04
2023-09-06T03:24:41.529Z,46.04
2023-09-06T03:29:43.125Z,45.93
2023-09-06T03:34:46.385Z,45.95
2023-09-06T03:39:48.780Z,45.96
2023-09-06T03:44:50.850Z,45.72
2023-09-06T03:49:53.154Z,45.51
2023-09-06T03:54:56.277Z,45.51
2023-09-06T03:59:59.859Z,45.49
2023-09-06T04:05:01.201Z,45.20
2023-09-06T04:10:03.894Z,45.38
2023-09-06T04:15:08.078Z,45.00
2023-09-06T04:20:20.170Z,45.06
2023-09-06T04:25:23.796Z,45.21
2023-09-06T04:30:25.541Z,45.01
2023-09-06T04:35:28.775Z,44.92
2023-09-06T04:40:33.145Z,44.83
2023-09-06T04:45:34.494Z,44.89
2023-09-06T04:50:39.564Z,44.79
2023-09-06T04:55:41.193Z,45.11
2023-09-06T05:00:44.526Z,44.89
2023-09-06T05:05:49.009Z,44.95
2023-09-06T05:10:50.871Z,44.62
2023-09-06T05:15:52.194Z,44.69
2023-09-06T05:20:53.594Z,44.63
2023-09-06T05:25:55.099Z,44.55
2023-09-06T05:30:56.412Z,44.63
2023-09-06T05:35:57.965Z,44.65
2023-09-06T05:40:59.357Z,44.70
2023-09-06T05:46:00.771Z,44.64
2023-09-06T05:51:02.263Z,44.51
2023-09-06T05:56:03.652Z,44.48
2023-09-06T06:01:05.297Z,44.42
2023-09-06T06:06:11.581Z,44.46
2023-09-06T06:11:12.962Z,44.66
2023-09-06T06:16:15.889Z,44.33
2023-09-06T06:21:18.724Z,44.32
2023-09-06T06:26:21.232Z,44.40
2023-09-06T06:31:22.588Z,44.20
2023-09-06T06:36:24.202Z,44.39
2023-09-06T06:41:26.764Z,44.15
2023-09-06T06:46:28.784Z,44.20
2023-09-06T06:51:36.132Z,44.01
2023-09-06T06:56:39.751Z,44.33
2023-09-06T07:01:41.087Z,44.26
2023-09-06T07:06:42.408Z,44.46
2023-09-06T07:11:44.173Z,44.89
2023-09-06T07:16:45.684Z,45.04
2023-09-06T07:21:47.912Z,45.32
2023-09-06T07:26:49.725Z,45.62
2023-09-06T07:31:51.066Z,46.20
2023-09-06T07:36:52.364Z,46.06
2023-09-06T07:41:54.741Z,46.11
2023-09-06T07:46:56.380Z,46.68
2023-09-06T07:51:58.346Z,46.60
2023-09-06T07:56:59.672Z,46.85
2023-09-06T08:02:01.027Z,47.05
2023-09-06T08:07:02.534Z,46.87
2023-09-06T08:12:04.098Z,47.15
2023-09-06T08:17:05.586Z,46.85
2023-09-06T08:22:07.325Z,47.10
2023-09-06T08:27:08.664Z,47.11
2023-09-06T08:32:10.256Z,47.62
2023-09-06T08:37:11.856Z,47.33
2023-09-06T08:42:13.199Z,47.60
2023-09-06T08:47:14.536Z,47.55
2023-09-06T08:52:15.868Z,47.47
2023-09-06T08:57:20.378Z,47.71
2023-09-06T09:02:21.706Z,47.63
2023-09-06T09:07:23.965Z,47.33
2023-09-06T09:12:26.052Z,47.43
2023-09-06T09:17:27.924Z,47.57
2023-09-06T09:22:29.896Z,47.16
2023-09-06T09:27:34.797Z,47.52
2023-09-06T09:32:36.172Z,47.25
2023-09-06T09:37:39.906Z,47.05
2023-09-06T09:42:51.703Z,46.93
2023-09-06T09:47:54.512Z,46.64
2023-09-06T09:52:57.205Z,46.35
2023-09-06T09:58:06.686Z,45.74
2023-09-06T10:03:09.863Z,45.88
2023-09-06T10:08:11.476Z,45.52
2023-09-06T10:13:13.877Z,45.06
2023-09-06T10:18:15.308Z,44.81
2023-09-06T10:23:18.177Z,44.14
2023-09-06T10:28:25.565Z,43.19
2023-09-06T10:33:43.276Z,42.45
2023-09-06T10:38:53.748Z,42.42
2023-09-06T10:44:08.294Z,42.03
2023-09-06T10:49:15.810Z,42.56
2023-09-06T10:54:18.811Z,42.38
2023-09-06T10:59:23.074Z,41.89
2023-09-06T11:04:27.601Z,41.93
2023-09-06T11:09:31.026Z,41.93
2023-09-06T11:14:32.334Z,41.97
2023-09-06T11:19:36.646Z,41.66
2023-09-06T11:24:38.179Z,41.92
2023-09-06T11:29:40.383Z,41.44
2023-09-06T11:34:45.295Z,41.62
2023-09-06T11:39:46.743Z,41.61
2023-09-06T11:44:56.119Z,41.33
2023-09-06T11:49:59.021Z,41.07
2023-09-06T11:55:06.254Z,40.78
2023-09-06T12:00:09.097Z,40.81
2023-09-06T12:05:12.463Z,40.76
2023-09-06T12:10:17.480Z,40.43
2023-09-06T12:15:21.014Z,40.60
2023-09-06T12:20:24.206Z,40.34
2023-09-06T12:25:25.601Z,40.76
2023-09-06T12:30:26.936Z,40.41
2023-09-06T12:35:28.257Z,40.07
2023-09-06T12:40:30.393Z,39.44
2023-09-06T12:45:31.904Z,39.16
2023-09-06T12:50:33.289Z,38.58
2023-09-06T12:55:35.439Z,38.65
2023-09-06T13:00:36.732Z,38.50
2023-09-06T13:05:40.726Z,37.91
2023-09-06T13:10:42.123Z,37.32
2023-09-06T13:15:43.470Z,38.00
2023-09-06T13:20:44.951Z,38.15
2023-09-06T13:25:46.270Z,38.63
2023-09-06T13:30:47.751Z,38.52
2023-09-06T13:35:50.379Z,38.64
2023-09-06T13:40:51.722Z,39.22
2023-09-06T13:45:53.156Z,39.43
2023-09-06T13:50:54.530Z,39.85
2023-09-06T13:55:56.722Z,40.27
2023-09-06T14:00:59.557Z,40.27
2023-09-06T14:06:00.923Z,40.80
2023-09-06T14:11:03.933Z,40.74
2023-09-06T14:16:06.636Z,41.20
2023-09-06T14:21:07.987Z,40.93
2023-09-06T14:26:09.516Z,41.22
2023-09-06T14:31:13.936Z,41.32
2023-09-06T14:36:15.279Z,41.37
2023-09-06T14:41:16.651Z,41.21
2023-09-06T14:46:18.884Z,40.94
2023-09-06T14:51:20.265Z,40.97
2023-09-06T14:56:21.719Z,41.10
2023-09-06T15:01:23.294Z,41.17
2023-09-06T15:06:24.630Z,41.06
2023-09-06T15:11:26.470Z,40.82
2023-09-06T15:16:27.799Z,40.88
2023-09-06T15:21:29.187Z,40.94
2023-09-06T15:26:30.492Z,40.86
2023-09-06T15:31:32.098Z,40.53
2023-09-06T15:36:33.601Z,40.69
2023-09-06T15:41:34.922Z,40.40
2023-09-06T15:46:36.230Z,40.61
2023-09-06T15:51:37.738Z,40.57
2023-09-06T15:56:39.168Z,40.52
2023-09-06T16:01:40.583Z,40.64
2023-09-06T16:06:42.585Z,40.84
2023-09-06T16:11:43.894Z,40.78
2023-09-06T16:16:45.223Z,40.63
2023-09-06T16:21:46.571Z,40.85
2023-09-06T16:26:48.104Z,40.69
2023-09-06T16:31:49.464Z,40.65
2023-09-06T16:36:51.118Z,40.69
2023-09-06T16:41:52.421Z,40.78
2023-09-06T16:46:53.872Z,40.94
2023-09-06T16:51:55.381Z,40.92
2023-09-06T16:56:57.481Z,41.01
2023-09-06T17:01:59.181Z,41.12
2023-09-06T17:07:00.587Z,41.21
2023-09-06T17:12:01.876Z,41.57
2023-09-06T17:17:04.428Z,41.54
2023-09-06T17:22:05.992Z,41.77
2023-09-06T17:27:09.483Z,41.94
2023-09-06T17:32:11.125Z,41.81
2023-09-06T17:37:12.531Z,42.09
2023-09-06T17:42:13.817Z,42.60
2023-09-06T17:47:15.110Z,42.76
2023-09-06T17:52:17.399Z,42.90
2023-09-06T17:57:18.709Z,43.17
2023-09-06T18:02:20.831Z,43.35
2023-09-06T18:07:22.341Z,43.66
2023-09-06T18:12:25.762Z,43.44
2023-09-06T18:17:27.555Z,43.48
2023-09-06T18:22:28.957Z,43.64
2023-09-06T18:27:30.389Z,44.07
2023-09-06T18:32:32.568Z,44.16
2023-09-06T18:37:33.941Z,44.10
2023-09-06T18:42:35.342Z,44.00
2023-09-06T18:47:36.799Z,43.93
2023-09-06T18:52:38.541Z,44.24
2023-09-06T18:57:48.386Z,44.37
2023-09-06T19:03:01.710Z,44.96
2023-09-06T19:08:03.165Z,45.28
2023-09-06T19:13:04.885Z,45.29
2023-09-06T19:18:07.246Z,45.27
2023-09-06T19:23:17.340Z,45.15
2023-09-06T19:28:19.902Z,45.18
2023-09-06T19:33:21.305Z,45.25
2023-09-06T19:38:25.367Z,44.86
2023-09-06T19:43:26.732Z,45.23
2023-09-06T19:48:28.106Z,45.03
2023-09-06T19:53:29.465Z,45.19
2023-09-06T19:58:31.112Z,45.11
2023-09-06T20:03:32.733Z,45.28
2023-09-06T20:08:34.192Z,45.29
2023-09-06T20:13:35.506Z,45.57
2023-09-06T20:18:36.814Z,45.81
2023-09-06T20:23:39.022Z,46.11
2023-09-06T20:28:40.467Z,46.11
2023-09-06T20:33:41.883Z,46.40
2023-09-06T20:38:43.223Z,46.39
2023-09-06T20:43:44.596Z,46.31
2023-09-06T20:48:47.081Z,46.42
2023-09-06T20:53:48.702Z,46.83
2023-09-06T20:58:50.030Z,46.96
2023-09-06T21:03:51.430Z,46.86
2023-09-06T21:08:53.317Z,47.36
2023-09-06T21:13:54.766Z,47.32
2023-09-06T21:18:56.202Z,47.71
2023-09-06T21:23:57.535Z,47.72
2023-09-06T21:28:58.928Z,48.29
2023-09-06T21:34:00.363Z,48.34
2023-09-06T21:39:01.820Z,48.28
2023-09-06T21:44:03.272Z,48.58
2023-09-06T21:49:04.567Z,48.75
2023-09-06T21:54:05.878Z,48.48
2023-09-06T21:59:07.465Z,48.72
2023-09-06T22:04:08.887Z,48.78
2023-09-06T22:09:10.568Z,48.91
2023-09-06T22:14:11.913Z,48.76
2023-09-06T22:19:13.826Z,48.61
2023-09-06T22:24:15.152Z,48.70
2023-09-06T22:29:16.491Z,48.91
2023-09-06T22:34:19.608Z,49.07
2023-09-06T22:39:20.940Z,49.16
2023-09-06T22:44:22.350Z,48.98
2023-09-06T22:49:23.688Z,49.30
2023-09-06T22:54:25.105Z,49.18
2023-09-06T22:59:26.738Z,49.12
2023-09-06T23:04:28.582Z,49.08
2023-09-06T23:09:30.683Z,49.27
2023-09-06T23:14:37.751Z,49.28
2023-09-06T23:19:45.326Z,49.39
2023-09-06T23:24:50.258Z,49.31
2023-09-06T23:29:59.546Z,49.37
2023-09-06T23:35:01.006Z,49.50
2023-09-06T23:40:12.377Z,49.47
2023-09-06T23:45:13.742Z,49.51
2023-09-06T23:50:15.046Z,49.48
2023-09-06T23:55:16.440Z,49.52
